Time;durP1;ratioP1;P1;durP2;ratioP2;P2;SDS_P1;SDS_P2;PMS_P1;PMS_P2;Temp;Humidity;BMP_temperature;BMP_pressure;BME280_temperature;BME280_humidity;BME280_pressure;Samples;Min_cycle;Max_cycle;Signal;HPM_P1;HPM_P2
2022/06/08 00:00:05;;;;;;;13.20;8.05;;;;;;;;;;5068830;28;20049;-76
2022/06/08 00:02:32;;;;;;;12.07;7.07;;;;;;;;;;5052265;28;20128;-76
2022/06/08 00:04:59;;;;;;;12.05;7.78;;;;;;;;;;5068072;28;20059;-76
2022/06/08 00:07:25;;;;;;;11.25;7.75;;;;;;;;;;5070235;28;20131;-76
2022/06/08 00:09:51;;;;;;;10.68;7.57;;;;;;;;;;5061320;28;20079;-76
2022/06/08 00:12:17;;;;;;;11.30;7.57;;;;;;;;;;5064136;28;20073;-77
2022/06/08 00:14:44;;;;;;;11.20;7.57;;;;;;;;;;5071310;28;20048;-77
2022/06/08 00:17:10;;;;;;;12.05;7.40;;;;;;;;;;5056153;28;20080;-75
2022/06/08 00:19:36;;;;;;;11.25;7.72;;;;;;;;;;5065551;28;20049;-76
2022/06/08 00:22:03;;;;;;;11.05;7.40;;;;;;;;;;5059963;28;20099;-76
2022/06/08 00:24:29;;;;;;;13.13;8.20;;;;;;;;;;5053316;28;20045;-76
2022/06/08 00:26:55;;;;;;;14.93;8.15;;;;;;;;;;5064896;28;20041;-76
2022/06/08 00:29:21;;;;;;;11.40;7.30;;;;;;;;;;5051758;28;20051;-77
2022/06/08 00:31:47;;;;;;;14.55;7.45;;;;;;;;;;5057205;28;20393;-76
2022/06/08 00:34:13;;;;;;;11.65;7.53;;;;;;;;;;5059639;28;20113;-76
2022/06/08 00:36:39;;;;;;;10.48;7.10;;;;;;;;;;5067549;28;20048;-75
2022/06/08 00:39:05;;;;;;;11.55;7.82;;;;;;;;;;5073195;28;20131;-75
2022/06/08 00:41:41;;;;;;;14.02;8.60;;;;;;;;;;5064626;28;20048;-75
2022/06/08 00:44:19;;;;;;;13.02;9.60;;;;;;;;;;5056869;28;20136;-75
2022/06/08 00:46:45;;;;;;;12.75;8.98;;;;;;;;;;5057130;28;20048;-76
2022/06/08 00:49:19;;;;;;;14.15;10.38;;;;;;;;;;5048032;28;20041;-76
2022/06/08 00:51:46;;;;;;;16.10;10.05;;;;;;;;;;5099737;28;20092;-75
2022/06/08 00:54:15;;;;;;;15.63;10.15;;;;;;;;;;5066101;28;20033;-75
2022/06/08 00:56:43;;;;;;;17.50;10.65;;;;;;;;;;5056402;28;20076;-75
2022/06/08 00:59:10;;;;;;;15.63;10.68;;;;;;;;;;5072224;28;20074;-76
2022/06/08 01:01:36;;;;;;;16.63;11.30;;;;;;;;;;5076339;28;20550;-76
2022/06/08 01:04:07;;;;;;;17.77;11.10;;;;;;;;;;5066871;28;20040;-76
2022/06/08 01:06:34;;;;;;;12.52;9.52;;;;;;;;;;5074348;28;20129;-76
2022/06/08 01:09:00;;;;;;;15.50;10.73;;;;;;;;;;5075009;28;20494;-75
2022/06/08 01:11:43;;;;;;;15.73;11.23;;;;;;;;;;5074232;28;20182;-75
2022/06/08 01:14:11;;;;;;;15.68;10.73;;;;;;;;;;5055534;28;20074;-75
2022/06/08 01:16:37;;;;;;;15.48;10.90;;;;;;;;;;5098936;28;20478;-76
2022/06/08 01:19:04;;;;;;;15.88;10.30;;;;;;;;;;5066119;28;20041;-76
2022/06/08 01:21:31;;;;;;;14.23;11.20;;;;;;;;;;5066068;28;20040;-76
2022/06/08 01:24:02;;;;;;;16.80;11.38;;;;;;;;;;5074941;28;20036;-76
2022/06/08 01:26:28;;;;;;;15.85;11.18;;;;;;;;;;5064570;28;20072;-76
2022/06/08 01:29:16;;;;;;;16.52;11.93;;;;;;;;;;5076051;28;20044;-76
2022/06/08 01:31:58;;;;;;;18.10;12.73;;;;;;;;;;5064977;28;20055;-76
2022/06/08 01:34:32;;;;;;;16.80;11.77;;;;;;;;;;5066398;28;20075;-75
2022/06/08 01:36:58;;;;;;;18.60;11.85;;;;;;;;;;5064432;28;20120;-76
2022/06/08 01:39:32;;;;;;;16.85;12.13;;;;;;;;;;5072442;28;20044;-76
2022/06/08 01:41:58;;;;;;;18.27;13.65;;;;;;;;;;5066147;28;20494;-76
2022/06/08 01:44:27;;;;;;;17.85;13.40;;;;;;;;;;5064315;28;20064;-76
2022/06/08 01:46:53;;;;;;;21.52;14.20;;;;;;;;;;5057980;28;20494;-76
2022/06/08 01:49:35;;;;;;;21.40;14.32;;;;;;;;;;5062543;28;20116;-76
2022/06/08 01:52:20;;;;;;;17.52;14.45;;;;;;;;;;5068045;28;20047;-76
2022/06/08 01:54:55;;;;;;;19.25;14.35;;;;;;;;;;5063865;28;20120;-76
2022/06/08 01:57:39;;;;;;;21.13;15.00;;;;;;;;;;5069417;28;20052;-76
2022/06/08 02:00:06;;;;;;;20.35;15.05;;;;;;;;;;5074010;28;20490;-75
2022/06/08 02:02:34;;;;;;;24.30;16.67;;;;;;;;;;5070115;28;20037;-75
2022/06/08 02:05:04;;;;;;;21.20;16.13;;;;;;;;;;5055329;28;20037;-75
2022/06/08 02:07:45;;;;;;;20.38;15.45;;;;;;;;;;5054818;28;20090;-76
2022/06/08 02:10:14;;;;;;;24.95;15.07;;;;;;;;;;5058966;28;20040;-76
2022/06/08 02:12:44;;;;;;;23.90;15.98;;;;;;;;;;5071367;28;20049;-76
2022/06/08 02:15:13;;;;;;;21.08;14.73;;;;;;;;;;5054739;28;20053;-76
2022/06/08 02:17:42;;;;;;;21.60;14.30;;;;;;;;;;5061142;28;20083;-76
2022/06/08 02:20:13;;;;;;;22.77;15.95;;;;;;;;;;5073995;28;20368;-76
2022/06/08 02:22:46;;;;;;;21.38;15.65;;;;;;;;;;5070857;28;20037;-76
2022/06/08 02:25:12;;;;;;;20.83;15.88;;;;;;;;;;5070100;28;20048;-75
2022/06/08 02:27:41;;;;;;;24.17;16.17;;;;;;;;;;5054731;28;20052;-75
2022/06/08 02:30:10;;;;;;;23.90;17.00;;;;;;;;;;5054975;28;20041;-76
2022/06/08 02:35:26;;;;;;;23.33;16.80;;;;;;;;;;5087618;28;20052;-75
2022/06/08 02:37:55;;;;;;;24.00;16.60;;;;;;;;;;5058023;28;20071;-76
2022/06/08 02:40:24;;;;;;;23.65;16.50;;;;;;;;;;5069600;28;20048;-75
2022/06/08 02:42:52;;;;;;;24.60;16.90;;;;;;;;;;5074253;28;20057;-75
2022/06/08 02:45:24;;;;;;;22.42;16.98;;;;;;;;;;5065588;28;20063;-75
2022/06/08 02:47:52;;;;;;;26.35;16.80;;;;;;;;;;5071983;28;20041;-75
2022/06/08 02:50:21;;;;;;;25.83;16.58;;;;;;;;;;5070158;28;20490;-75
2022/06/08 02:52:48;;;;;;;23.17;17.42;;;;;;;;;;5073076;28;20045;-76
2022/06/08 02:55:28;;;;;;;27.35;17.20;;;;;;;;;;5057714;28;20051;-75
2022/06/08 02:58:14;;;;;;;27.88;17.52;;;;;;;;;;5066269;28;20049;-76
2022/06/08 03:00:45;;;;;;;27.63;17.77;;;;;;;;;;5067828;28;20041;-76
2022/06/08 03:03:17;;;;;;;25.38;18.55;;;;;;;;;;5085219;28;20045;-76
2022/06/08 03:05:45;;;;;;;28.77;19.15;;;;;;;;;;5061453;28;20037;-76
2022/06/08 03:08:14;;;;;;;29.88;18.77;;;;;;;;;;5052979;28;20056;-76
2022/06/08 03:10:41;;;;;;;23.08;18.75;;;;;;;;;;5068708;28;20051;-76
2022/06/08 03:13:12;;;;;;;25.25;18.90;;;;;;;;;;5073711;28;20044;-76
2022/06/08 03:15:40;;;;;;;28.90;19.75;;;;;;;;;;5065665;28;20058;-75
2022/06/08 03:18:06;;;;;;;29.48;19.45;;;;;;;;;;5074351;28;20414;-76
2022/06/08 03:20:32;;;;;;;29.17;20.77;;;;;;;;;;5066293;28;20045;-77
2022/06/08 03:22:58;;;;;;;26.63;20.23;;;;;;;;;;5056390;28;20041;-76
2022/06/08 03:25:25;;;;;;;29.35;20.40;;;;;;;;;;5060646;28;20520;-75
2022/06/08 03:27:51;;;;;;;26.55;20.58;;;;;;;;;;5054840;28;20049;-76
2022/06/08 03:30:18;;;;;;;27.33;20.60;;;;;;;;;;5059548;28;20037;-75
2022/06/08 03:32:44;;;;;;;28.23;20.80;;;;;;;;;;5069804;28;20036;-76
2022/06/08 03:35:10;;;;;;;32.45;22.05;;;;;;;;;;5072583;28;20041;-76
2022/06/08 03:37:36;;;;;;;29.17;21.10;;;;;;;;;;5057368;28;20078;-75
2022/06/08 03:40:03;;;;;;;27.27;20.58;;;;;;;;;;5062492;28;20499;-75
2022/06/08 03:42:29;;;;;;;25.60;20.13;;;;;;;;;;5061790;28;20040;-76
2022/06/08 03:44:56;;;;;;;30.25;20.73;;;;;;;;;;5072209;28;20074;-75
2022/06/08 03:47:25;;;;;;;26.92;20.02;;;;;;;;;;5068103;28;20056;-75
2022/06/08 03:49:52;;;;;;;30.58;20.23;;;;;;;;;;5071744;28;20048;-75
2022/06/08 03:52:22;;;;;;;29.02;20.45;;;;;;;;;;5052826;28;20488;-76
2022/06/08 03:54:51;;;;;;;24.23;20.75;;;;;;;;;;5066464;28;20052;-76
2022/06/08 03:57:18;;;;;;;28.73;20.30;;;;;;;;;;5066408;28;20049;-76
2022/06/08 03:59:46;;;;;;;25.77;20.52;;;;;;;;;;5067640;28;20044;-76
2022/06/08 04:02:12;;;;;;;27.02;20.42;;;;;;;;;;5064518;28;20075;-74
2022/06/08 04:04:39;;;;;;;27.25;19.90;;;;;;;;;;5052871;28;20446;-75
2022/06/08 04:07:06;;;;;;;29.90;19.48;;;;;;;;;;5069849;28;20044;-75
2022/06/08 04:09:32;;;;;;;25.85;20.58;;;;;;;;;;5073843;28;20402;-75
2022/06/08 04:11:58;;;;;;;26.25;19.60;;;;;;;;;;5067953;28;20487;-75
2022/06/08 04:14:24;;;;;;;26.65;20.30;;;;;;;;;;5055752;28;20124;-76
2022/06/08 04:16:51;;;;;;;23.70;20.25;;;;;;;;;;5062705;28;20048;-76
2022/06/08 04:19:17;;;;;;;28.40;20.20;;;;;;;;;;5075959;28;20404;-75
2022/06/08 04:21:44;;;;;;;28.75;20.20;;;;;;;;;;5071778;28;20452;-76
2022/06/08 04:24:12;;;;;;;26.50;20.65;;;;;;;;;;5056883;28;20414;-75
2022/06/08 04:26:38;;;;;;;27.88;21.20;;;;;;;;;;5070200;28;20055;-77
2022/06/08 04:29:05;;;;;;;25.83;19.80;;;;;;;;;;5076259;28;20179;-76
2022/06/08 04:31:34;;;;;;;25.40;20.33;;;;;;;;;;5062081;28;20070;-76
2022/06/08 04:34:00;;;;;;;28.35;20.17;;;;;;;;;;5071498;28;20092;-76
2022/06/08 04:36:26;;;;;;;24.40;20.90;;;;;;;;;;5063625;28;20051;-76
2022/06/08 04:38:52;;;;;;;26.67;20.63;;;;;;;;;;5074449;28;20045;-76
2022/06/08 04:41:18;;;;;;;26.60;20.30;;;;;;;;;;5068241;28;20041;-76
2022/06/08 04:43:44;;;;;;;25.85;21.60;;;;;;;;;;5057986;28;20060;-74
2022/06/08 04:46:16;;;;;;;27.83;20.08;;;;;;;;;;5075025;28;20048;-75
2022/06/08 04:48:44;;;;;;;24.90;20.38;;;;;;;;;;5067337;28;20186;-75
2022/06/08 04:51:11;;;;;;;27.88;21.00;;;;;;;;;;5056199;28;20132;-76
2022/06/08 04:53:38;;;;;;;27.58;21.08;;;;;;;;;;5063580;28;20066;-76
2022/06/08 04:56:04;;;;;;;29.52;20.75;;;;;;;;;;5069375;28;20450;-75
2022/06/08 04:58:30;;;;;;;25.95;20.48;;;;;;;;;;5074317;28;20044;-76
2022/06/08 05:00:57;;;;;;;24.15;19.08;;;;;;;;;;5075277;28;20074;-76
2022/06/08 05:03:23;;;;;;;27.63;20.30;;;;;;;;;;5064013;28;20052;-76
2022/06/08 05:05:49;;;;;;;25.52;20.73;;;;;;;;;;5056369;28;20051;-76
2022/06/08 05:08:20;;;;;;;25.70;20.85;;;;;;;;;;5069314;28;20041;-76
2022/06/08 05:10:48;;;;;;;29.20;20.58;;;;;;;;;;5055503;28;20060;-76
2022/06/08 05:13:14;;;;;;;24.88;20.23;;;;;;;;;;5071008;28;20048;-77
2022/06/08 05:15:41;;;;;;;27.20;21.25;;;;;;;;;;5075067;28;20076;-76
2022/06/08 05:18:08;;;;;;;28.83;20.73;;;;;;;;;;5075326;28;20139;-77
2022/06/08 05:20:34;;;;;;;26.30;20.63;;;;;;;;;;5060546;28;20045;-76
2022/06/08 05:23:01;;;;;;;27.10;20.98;;;;;;;;;;5061331;28;20060;-76
2022/06/08 05:25:30;;;;;;;23.60;20.50;;;;;;;;;;5070252;28;20052;-76
2022/06/08 05:27:56;;;;;;;29.75;21.83;;;;;;;;;;5075661;28;20582;-76
2022/06/08 05:30:22;;;;;;;24.25;20.35;;;;;;;;;;5074743;28;20051;-76
2022/06/08 05:32:48;;;;;;;28.05;22.20;;;;;;;;;;5068710;28;20040;-76
2022/06/08 05:35:15;;;;;;;28.63;22.55;;;;;;;;;;5073908;28;20074;-76
2022/06/08 05:37:41;;;;;;;27.65;22.63;;;;;;;;;;5055529;28;20037;-76
2022/06/08 05:40:07;;;;;;;30.27;22.45;;;;;;;;;;5072711;28;20036;-76
2022/06/08 05:42:33;;;;;;;29.92;23.90;;;;;;;;;;5054829;28;20045;-76
2022/06/08 05:44:59;;;;;;;26.85;22.48;;;;;;;;;;5054141;28;20048;-75
2022/06/08 05:47:26;;;;;;;27.35;23.30;;;;;;;;;;5055538;28;20454;-76
2022/06/08 05:49:52;;;;;;;27.85;22.48;;;;;;;;;;5056635;28;20055;-76
2022/06/08 05:52:19;;;;;;;31.70;24.13;;;;;;;;;;5037332;28;20101;-75
2022/06/08 05:54:45;;;;;;;31.65;24.38;;;;;;;;;;5054329;28;20053;-76
2022/06/08 05:57:11;;;;;;;28.27;24.08;;;;;;;;;;5058696;28;20071;-75
2022/06/08 05:59:38;;;;;;;26.98;23.33;;;;;;;;;;5082604;28;20052;-76
2022/06/08 06:02:04;;;;;;;28.67;23.58;;;;;;;;;;5073838;28;20041;-75
2022/06/08 06:04:30;;;;;;;31.40;23.42;;;;;;;;;;5060216;28;20057;-75
2022/06/08 06:06:56;;;;;;;31.48;23.65;;;;;;;;;;5068431;28;20107;-75
2022/06/08 06:09:22;;;;;;;28.33;24.15;;;;;;;;;;5054893;28;20041;-76
2022/06/08 06:11:50;;;;;;;27.17;23.02;;;;;;;;;;5068884;28;20032;-76
2022/06/08 06:14:16;;;;;;;27.92;23.17;;;;;;;;;;5061643;28;20048;-76
2022/06/08 06:16:42;;;;;;;27.58;21.92;;;;;;;;;;5068130;28;20041;-76
2022/06/08 06:19:08;;;;;;;25.92;22.27;;;;;;;;;;5056064;28;20127;-75
2022/06/08 06:21:35;;;;;;;26.02;21.08;;;;;;;;;;5065807;28;20044;-76
2022/06/08 06:24:02;;;;;;;26.85;22.80;;;;;;;;;;5095347;28;20044;-76
2022/06/08 06:26:29;;;;;;;25.75;21.58;;;;;;;;;;5095093;28;20050;-76
2022/06/08 06:28:56;;;;;;;24.25;21.45;;;;;;;;;;5060410;28;20052;-75
2022/06/08 06:31:31;;;;;;;23.45;19.45;;;;;;;;;;5055748;28;20449;-75
2022/06/08 06:33:57;;;;;;;22.63;19.88;;;;;;;;;;5073840;28;20479;-76
2022/06/08 06:36:23;;;;;;;21.00;18.33;;;;;;;;;;5074707;28;20059;-76
2022/06/08 06:38:50;;;;;;;40.90;22.58;;;;;;;;;;5061841;28;20037;-76
2022/06/08 06:41:16;;;;;;;20.67;17.95;;;;;;;;;;5065507;28;20486;-77
2022/06/08 06:43:43;;;;;;;19.75;17.00;;;;;;;;;;5066848;28;20132;-76
2022/06/08 06:46:10;;;;;;;18.23;16.27;;;;;;;;;;5069946;28;20045;-77
2022/06/08 06:48:36;;;;;;;18.95;15.98;;;;;;;;;;5051239;28;20048;-77
2022/06/08 06:51:03;;;;;;;17.33;15.45;;;;;;;;;;5054256;28;20049;-75
2022/06/08 06:53:29;;;;;;;15.88;14.18;;;;;;;;;;5058867;28;20047;-75
2022/06/08 06:55:55;;;;;;;18.75;14.55;;;;;;;;;;5054061;28;20044;-74
2022/06/08 06:58:22;;;;;;;16.45;13.52;;;;;;;;;;5054095;28;20048;-76
2022/06/08 07:00:48;;;;;;;14.95;12.80;;;;;;;;;;5061401;28;20426;-77
2022/06/08 07:03:14;;;;;;;14.90;12.60;;;;;;;;;;5075187;28;20441;-76
2022/06/08 07:05:40;;;;;;;14.82;12.68;;;;;;;;;;5073180;28;20094;-76
2022/06/08 07:08:06;;;;;;;14.45;12.95;;;;;;;;;;5068898;28;20036;-76
2022/06/08 07:10:33;;;;;;;14.65;12.38;;;;;;;;;;5061664;28;20086;-76
2022/06/08 07:12:59;;;;;;;14.40;12.10;;;;;;;;;;5056331;28;20045;-76
2022/06/08 07:15:26;;;;;;;13.82;11.80;;;;;;;;;;5058297;28;20507;-76
2022/06/08 07:17:52;;;;;;;12.27;10.43;;;;;;;;;;5052386;28;20041;-76
2022/06/08 07:20:19;;;;;;;12.20;10.82;;;;;;;;;;5053407;28;20095;-76
2022/06/08 07:22:46;;;;;;;12.77;9.27;;;;;;;;;;5053733;28;20446;-76
2022/06/08 07:25:13;;;;;;;10.85;9.35;;;;;;;;;;5056359;28;20079;-76
2022/06/08 07:27:40;;;;;;;10.43;8.60;;;;;;;;;;5059866;28;20037;-76
2022/06/08 07:30:07;;;;;;;11.27;9.05;;;;;;;;;;5071691;28;20391;-75
2022/06/08 07:32:33;;;;;;;11.85;9.30;;;;;;;;;;5072432;28;20059;-75
2022/06/08 07:34:59;;;;;;;10.65;8.40;;;;;;;;;;5073552;28;20053;-77
2022/06/08 07:37:26;;;;;;;11.60;8.48;;;;;;;;;;5072668;28;20380;-76
2022/06/08 07:39:52;;;;;;;10.50;7.70;;;;;;;;;;5070125;28;20453;-75
2022/06/08 07:42:19;;;;;;;10.70;7.72;;;;;;;;;;5070957;28;20678;-77
2022/06/08 07:44:45;;;;;;;8.63;6.63;;;;;;;;;;5059523;28;20060;-76
2022/06/08 07:47:11;;;;;;;9.82;7.20;;;;;;;;;;5058073;28;20457;-76
2022/06/08 07:49:39;;;;;;;9.60;6.97;;;;;;;;;;5073549;28;20070;-76
2022/06/08 07:52:06;;;;;;;8.80;6.68;;;;;;;;;;5069731;28;20476;-76
2022/06/08 07:54:32;;;;;;;10.32;6.53;;;;;;;;;;5075202;28;20068;-75
2022/06/08 07:56:59;;;;;;;9.13;6.20;;;;;;;;;;5075947;28;20032;-77
2022/06/08 07:59:27;;;;;;;8.05;5.88;;;;;;;;;;5067637;28;20040;-76
2022/06/08 08:01:53;;;;;;;7.63;6.28;;;;;;;;;;5074809;28;20076;-76
2022/06/08 08:04:20;;;;;;;8.93;6.35;;;;;;;;;;5060397;28;20123;-76
2022/06/08 08:06:46;;;;;;;7.90;5.53;;;;;;;;;;5063242;28;20483;-77
2022/06/08 08:09:17;;;;;;;7.85;5.50;;;;;;;;;;5073209;28;20407;-77
2022/06/08 08:11:45;;;;;;;8.02;5.60;;;;;;;;;;5068536;28;20036;-77
2022/06/08 08:14:12;;;;;;;7.97;5.05;;;;;;;;;;5067273;28;20077;-76
2022/06/08 08:16:38;;;;;;;7.70;4.82;;;;;;;;;;5072404;28;20052;-75
2022/06/08 08:19:04;;;;;;;6.88;4.38;;;;;;;;;;5061635;28;20708;-77
2022/06/08 08:21:32;;;;;;;7.78;4.63;;;;;;;;;;5058744;28;20533;-76
2022/06/08 08:23:59;;;;;;;6.47;4.50;;;;;;;;;;5070241;28;20061;-76
2022/06/08 08:26:25;;;;;;;7.68;3.60;;;;;;;;;;5059923;28;20119;-76
2022/06/08 08:28:51;;;;;;;6.65;3.72;;;;;;;;;;5055180;28;20049;-76
2022/06/08 08:31:17;;;;;;;5.88;3.42;;;;;;;;;;5084020;28;20143;-76
2022/06/08 08:33:43;;;;;;;5.45;2.67;;;;;;;;;;5055637;28;20128;-77
2022/06/08 08:36:09;;;;;;;5.95;2.80;;;;;;;;;;5056832;28;20123;-76
2022/06/08 08:38:35;;;;;;;5.07;2.72;;;;;;;;;;5057972;28;20494;-76
2022/06/08 08:41:02;;;;;;;6.07;2.40;;;;;;;;;;5062826;28;20144;-75
2022/06/08 08:43:29;;;;;;;6.05;2.42;;;;;;;;;;5062423;28;20494;-76
2022/06/08 08:45:58;;;;;;;5.65;2.65;;;;;;;;;;5056921;28;20055;-76
2022/06/08 08:48:27;;;;;;;5.18;2.75;;;;;;;;;;5062719;28;20053;-77
2022/06/08 08:51:13;;;;;;;5.07;2.65;;;;;;;;;;5059818;28;20045;-76
2022/06/08 08:53:58;;;;;;;6.13;2.83;;;;;;;;;;5057254;28;20059;-76
2022/06/08 08:56:50;;;;;;;6.07;2.70;;;;;;;;;;5055612;28;20080;-76
2022/06/08 08:59:19;;;;;;;5.82;2.40;;;;;;;;;;5054684;28;20092;-75
2022/06/08 09:01:47;;;;;;;5.47;2.85;;;;;;;;;;5063399;28;20434;-71
2022/06/08 09:04:13;;;;;;;8.05;3.00;;;;;;;;;;5060257;28;20032;-74
2022/06/08 09:06:40;;;;;;;5.95;3.10;;;;;;;;;;5068579;28;20059;-75
2022/06/08 09:09:10;;;;;;;6.28;2.88;;;;;;;;;;5055601;28;20044;-73
2022/06/08 09:11:40;;;;;;;5.07;1.97;;;;;;;;;;5066905;28;20052;-73
2022/06/08 09:14:15;;;;;;;4.93;2.08;;;;;;;;;;5057346;28;20363;-75
2022/06/08 09:16:46;;;;;;;6.53;2.75;;;;;;;;;;5063416;28;20048;-75
2022/06/08 09:19:30;;;;;;;6.82;2.88;;;;;;;;;;5061483;28;20036;-76
2022/06/08 09:22:06;;;;;;;5.50;2.40;;;;;;;;;;5068307;28;20123;-77
2022/06/08 09:24:34;;;;;;;5.72;2.20;;;;;;;;;;5074064;28;20052;-76
2022/06/08 09:27:13;;;;;;;6.25;2.17;;;;;;;;;;5059549;28;20045;-76
2022/06/08 09:29:56;;;;;;;7.15;2.50;;;;;;;;;;5071269;28;20048;-76
2022/06/08 09:32:28;;;;;;;6.75;3.75;;;;;;;;;;5067143;28;20095;-76
2022/06/08 09:35:00;;;;;;;6.47;4.20;;;;;;;;;;5060046;28;20423;-76
2022/06/08 09:37:26;;;;;;;7.28;4.57;;;;;;;;;;5062347;28;20071;-76
2022/06/08 09:39:58;;;;;;;8.20;5.20;;;;;;;;;;5063420;28;20049;-75
2022/06/08 09:42:42;;;;;;;7.95;4.63;;;;;;;;;;5063891;28;20073;-77
2022/06/08 09:45:27;;;;;;;6.68;4.38;;;;;;;;;;5064680;28;20040;-76
2022/06/08 09:51:25;;;;;;;6.25;4.28;;;;;;;;;;5067050;28;20052;-76
2022/06/08 09:53:51;;;;;;;8.20;4.80;;;;;;;;;;5069270;28;20104;-77
2022/06/08 09:56:24;;;;;;;8.95;4.35;;;;;;;;;;5093046;28;20056;-76
2022/06/08 09:58:50;;;;;;;7.03;3.92;;;;;;;;;;5056534;28;20522;-76
2022/06/08 10:01:16;;;;;;;7.28;3.78;;;;;;;;;;5072572;28;20441;-76
2022/06/08 10:03:42;;;;;;;8.13;3.95;;;;;;;;;;5075904;28;20097;-76
2022/06/08 10:06:33;;;;;;;6.00;3.20;;;;;;;;;;5072738;28;20048;-76
2022/06/08 10:09:09;;;;;;;7.22;3.00;;;;;;;;;;5061402;28;20072;-75
2022/06/08 10:11:54;;;;;;;6.72;3.00;;;;;;;;;;5069169;28;20048;-76
2022/06/08 10:14:39;;;;;;;5.78;3.22;;;;;;;;;;5070350;28;20053;-75
2022/06/08 10:17:21;;;;;;;10.68;4.10;;;;;;;;;;5067699;28;20041;-76
2022/06/08 10:20:06;;;;;;;6.03;2.95;;;;;;;;;;5054857;28;20049;-76
2022/06/08 10:22:39;;;;;;;8.05;3.90;;;;;;;;;;5055425;28;20557;-76
2022/06/08 10:25:13;;;;;;;7.05;3.72;;;;;;;;;;5053627;28;20049;-76
2022/06/08 10:27:46;;;;;;;7.40;3.78;;;;;;;;;;5053946;28;20053;-75
2022/06/08 10:30:27;;;;;;;7.97;3.40;;;;;;;;;;5056763;28;20057;-76
2022/06/08 10:32:59;;;;;;;7.70;3.10;;;;;;;;;;5069230;28;20056;-75
2022/06/08 10:35:32;;;;;;;8.30;3.10;;;;;;;;;;5053934;28;20045;-75
2022/06/08 10:37:59;;;;;;;7.15;2.90;;;;;;;;;;5071219;28;20045;-75
2022/06/08 10:40:27;;;;;;;5.97;2.80;;;;;;;;;;5055974;28;20041;-76
2022/06/08 10:42:54;;;;;;;6.88;2.70;;;;;;;;;;5067968;28;20049;-75
2022/06/08 10:45:23;;;;;;;5.57;2.35;;;;;;;;;;5053609;28;20045;-77
2022/06/08 10:48:09;;;;;;;5.95;2.67;;;;;;;;;;5068855;28;20569;-76
2022/06/08 10:50:38;;;;;;;6.82;2.20;;;;;;;;;;5070866;28;20095;-75
2022/06/08 10:56:23;;;;;;;6.32;2.88;;;;;;;;;;5061239;28;20045;-76
2022/06/08 10:58:49;;;;;;;;;;;;;;;;;;5058946;28;20449;-77
2022/06/08 11:01:22;;;;;;;8.90;4.43;;;;;;;;;;5059724;28;19927;-78
2022/06/08 11:03:50;;;;;;;10.15;3.95;;;;;;;;;;5058890;28;20108;-74
2022/06/08 11:06:34;;;;;;;7.00;2.60;;;;;;;;;;5056820;28;20752;-74
2022/06/08 11:09:03;;;;;;;5.07;2.25;;;;;;;;;;5053808;28;20124;-75
2022/06/08 11:11:45;;;;;;;6.72;2.85;;;;;;;;;;5062216;28;20052;-74
2022/06/08 11:14:40;;;;;;;7.97;2.80;;;;;;;;;;5057210;28;20041;-74
2022/06/08 11:17:10;;;;;;;6.03;2.63;;;;;;;;;;5057886;28;20049;-72
2022/06/08 11:19:36;;;;;;;8.10;2.65;;;;;;;;;;5055651;28;20052;-79
2022/06/08 11:22:06;;;;;;;7.22;2.58;;;;;;;;;;5093563;28;20051;-79
2022/06/08 11:24:36;;;;;;;6.40;2.67;;;;;;;;;;5071999;28;20048;-81
2022/06/08 11:27:12;;;;;;;6.57;2.70;;;;;;;;;;5066968;28;20124;-77
2022/06/08 11:29:40;;;;;;;4.82;2.20;;;;;;;;;;5056036;28;20053;-77
2022/06/08 11:32:19;;;;;;;5.50;2.70;;;;;;;;;;5058441;28;20445;-75
2022/06/08 11:34:56;;;;;;;5.60;2.45;;;;;;;;;;5060449;28;20048;-77
2022/06/08 11:37:25;;;;;;;6.05;2.67;;;;;;;;;;5071264;28;20040;-76
2022/06/08 11:39:54;;;;;;;6.45;2.60;;;;;;;;;;5056675;28;20036;-78
2022/06/08 11:42:28;;;;;;;5.85;2.20;;;;;;;;;;5064169;28;20044;-77
2022/06/08 11:45:18;;;;;;;5.57;1.95;;;;;;;;;;5054547;28;20060;-77
2022/06/08 11:48:19;;;;;;;5.80;1.90;;;;;;;;;;5055399;28;20196;-78
2022/06/08 11:50:49;;;;;;;4.50;2.00;;;;;;;;;;5068495;28;20090;-74
2022/06/08 11:53:17;;;;;;;5.03;2.03;;;;;;;;;;5054050;28;20060;-78
2022/06/08 11:56:02;;;;;;;4.68;1.92;;;;;;;;;;5062055;28;20134;-78
2022/06/08 11:58:30;;;;;;;4.82;1.75;;;;;;;;;;5068397;28;20041;-78
2022/06/08 12:00:58;;;;;;;6.60;1.83;;;;;;;;;;5057261;28;20064;-78
2022/06/08 12:03:30;;;;;;;6.65;2.13;;;;;;;;;;5061792;28;20063;-79
2022/06/08 12:06:08;;;;;;;5.13;1.95;;;;;;;;;;5053517;28;20095;-78
2022/06/08 12:08:42;;;;;;;5.47;2.30;;;;;;;;;;5061346;28;20097;-77
2022/06/08 12:11:10;;;;;;;7.25;2.30;;;;;;;;;;5058797;28;20057;-77
2022/06/08 12:13:36;;;;;;;7.63;2.25;;;;;;;;;;5065083;28;20052;-76
2022/06/08 12:16:20;;;;;;;5.70;2.05;;;;;;;;;;5052710;28;20048;-77
2022/06/08 12:18:52;;;;;;;4.82;1.90;;;;;;;;;;5051712;28;20564;-77
2022/06/08 12:21:18;;;;;;;6.00;2.40;;;;;;;;;;5052990;28;20479;-76
2022/06/08 12:23:46;;;;;;;5.97;2.00;;;;;;;;;;5052525;28;20037;-77
2022/06/08 12:26:20;;;;;;;5.90;1.92;;;;;;;;;;5054854;28;20074;-76
2022/06/08 12:28:59;;;;;;;5.95;1.52;;;;;;;;;;5053742;28;20098;-75
2022/06/08 12:31:26;;;;;;;7.38;1.27;;;;;;;;;;5055385;28;20447;-75
2022/06/08 12:33:53;;;;;;;9.95;2.10;;;;;;;;;;5063570;28;20080;-74
2022/06/08 12:36:29;;;;;;;9.48;2.50;;;;;;;;;;5055605;28;20387;-76
2022/06/08 12:38:58;;;;;;;12.85;2.90;;;;;;;;;;5055804;28;20567;-77
2022/06/08 12:41:38;;;;;;;10.05;3.40;;;;;;;;;;5056087;28;20043;-76
2022/06/08 12:44:06;;;;;;;9.57;2.60;;;;;;;;;;5064587;28;20549;-77
2022/06/08 12:46:34;;;;;;;7.82;2.40;;;;;;;;;;5055211;28;20053;-76
2022/06/08 12:49:00;;;;;;;7.78;2.75;;;;;;;;;;5062060;28;20067;-76
2022/06/08 12:51:29;;;;;;;8.45;2.15;;;;;;;;;;5057761;28;20488;-77
2022/06/08 12:53:55;;;;;;;7.95;2.00;;;;;;;;;;5055333;28;20045;-77
2022/06/08 12:56:22;;;;;;;7.95;1.95;;;;;;;;;;5067247;28;20086;-77
2022/06/08 12:58:49;;;;;;;9.70;2.10;;;;;;;;;;5070993;28;20444;-77
2022/06/08 13:01:15;;;;;;;8.80;1.92;;;;;;;;;;5056512;28;20053;-77
2022/06/08 13:03:43;;;;;;;9.35;2.40;;;;;;;;;;5068262;28;20048;-76
2022/06/08 13:06:09;;;;;;;7.38;1.77;;;;;;;;;;5056994;28;20079;-76
2022/06/08 13:08:36;;;;;;;6.70;1.90;;;;;;;;;;5060449;28;20102;-76
2022/06/08 13:11:05;;;;;;;7.50;2.15;;;;;;;;;;5064327;28;20060;-76
2022/06/08 13:13:33;;;;;;;6.65;1.90;;;;;;;;;;5056659;28;20052;-76
2022/06/08 13:16:01;;;;;;;7.30;2.20;;;;;;;;;;5067316;28;20053;-77
2022/06/08 13:18:28;;;;;;;7.35;1.90;;;;;;;;;;5058834;28;20044;-75
2022/06/08 13:20:55;;;;;;;9.77;2.20;;;;;;;;;;5068269;28;20123;-75
2022/06/08 13:23:22;;;;;;;7.30;1.85;;;;;;;;;;5075173;28;20102;-75
2022/06/08 13:25:49;;;;;;;7.93;2.17;;;;;;;;;;5067877;28;20128;-76
2022/06/08 13:28:18;;;;;;;8.25;1.98;;;;;;;;;;5075058;28;20040;-75
2022/06/08 13:30:46;;;;;;;7.65;2.10;;;;;;;;;;5071676;28;20407;-78
2022/06/08 13:35:57;;;;;;;10.48;2.90;;;;;;;;;;5057816;28;20060;-76
2022/06/08 13:38:24;;;;;;;8.73;2.75;;;;;;;;;;5061274;28;20131;-76
2022/06/08 13:40:50;;;;;;;8.05;2.90;;;;;;;;;;5069081;28;20123;-75
2022/06/08 13:43:18;;;;;;;9.43;3.30;;;;;;;;;;5075723;28;20060;-74
2022/06/08 13:45:44;;;;;;;10.88;4.07;;;;;;;;;;5068284;28;20048;-75
2022/06/08 13:48:15;;;;;;;10.70;4.15;;;;;;;;;;5066770;28;20044;-75
2022/06/08 13:50:43;;;;;;;8.35;3.83;;;;;;;;;;5069977;28;20132;-75
2022/06/08 13:53:13;;;;;;;9.02;4.50;;;;;;;;;;5068939;28;20033;-75
2022/06/08 13:55:42;;;;;;;9.85;4.75;;;;;;;;;;5075858;28;20053;-75
2022/06/08 13:58:11;;;;;;;10.57;4.47;;;;;;;;;;5078223;28;20049;-75
2022/06/08 14:00:58;;;;;;;10.52;4.93;;;;;;;;;;5080927;28;20074;-75
2022/06/08 14:03:27;;;;;;;8.65;4.70;;;;;;;;;;5078063;28;20048;-74
2022/06/08 14:14:10;;;;;;;10.13;5.38;;;;;;;;;;5070074;28;20052;-75
2022/06/08 14:16:38;;;;;;;9.73;5.28;;;;;;;;;;5057963;28;20473;-75
2022/06/08 14:19:12;;;;;;;9.95;4.65;;;;;;;;;;5072895;28;20063;-75
2022/06/08 14:21:38;;;;;;;10.82;5.28;;;;;;;;;;5070462;28;20048;-75
2022/06/08 14:24:04;;;;;;;13.00;5.30;;;;;;;;;;5075937;28;20084;-75
2022/06/08 14:26:31;;;;;;;11.90;5.35;;;;;;;;;;5075781;28;20040;-75
2022/06/08 14:28:58;;;;;;;10.20;4.97;;;;;;;;;;5075769;28;20426;-76
2022/06/08 14:31:36;;;;;;;9.90;5.70;;;;;;;;;;5059563;28;20046;-76
2022/06/08 14:34:03;;;;;;;16.65;5.95;;;;;;;;;;5062093;28;20053;-76
2022/06/08 14:36:29;;;;;;;6.07;1.85;;;;;;;;;;5075936;28;20040;-75
2022/06/08 14:38:55;;;;;;;6.07;1.60;;;;;;;;;;5073503;28;20048;-76
2022/06/08 14:41:37;;;;;;;5.90;1.50;;;;;;;;;;5076981;28;20040;-75
2022/06/08 14:44:03;;;;;;;6.70;1.60;;;;;;;;;;5083569;28;20123;-75
2022/06/08 14:46:30;;;;;;;4.38;1.40;;;;;;;;;;5087601;28;20068;-75
2022/06/08 14:48:56;;;;;;;4.55;1.60;;;;;;;;;;5082759;28;20049;-75
2022/06/08 14:51:23;;;;;;;5.72;1.45;;;;;;;;;;5085996;28;20045;-75
2022/06/08 14:53:50;;;;;;;5.13;1.45;;;;;;;;;;5096117;28;20552;-75
2022/06/08 14:56:23;;;;;;;6.78;1.70;;;;;;;;;;5072783;28;20045;-75
2022/06/08 14:58:51;;;;;;;8.68;2.20;;;;;;;;;;5080433;28;20081;-75
2022/06/08 15:01:19;;;;;;;6.28;2.10;;;;;;;;;;5093145;28;20078;-76
2022/06/08 15:03:46;;;;;;;6.07;2.08;;;;;;;;;;5091517;28;20044;-76